createdAt,value
2022-12-09T00:00:18.645Z,81.30
2022-12-09T00:02:46.801Z,80.90
2022-12-09T00:05:15.327Z,80.80
2022-12-09T00:07:44.842Z,80.90
2022-12-09T00:10:13.046Z,80.80
2022-12-09T00:12:41.147Z,80.90
2022-12-09T00:15:09.742Z,81.10
2022-12-09T00:17:38.335Z,80.90
2022-12-09T00:20:08.505Z,80.80
2022-12-09T00:22:36.934Z,80.80
2022-12-09T00:25:07.372Z,80.90
2022-12-09T00:27:35.435Z,80.80
2022-12-09T00:30:04.128Z,81.00
2022-12-09T00:32:33.329Z,80.80
2022-12-09T00:35:01.860Z,80.70
2022-12-09T00:37:30.165Z,80.80
2022-12-09T00:39:59.881Z,80.80
2022-12-09T00:42:29.473Z,80.90
2022-12-09T00:44:57.751Z,81.10
2022-12-09T00:47:26.590Z,81.30
2022-12-09T00:49:54.669Z,81.30
2022-12-09T00:52:22.811Z,81.20
2022-12-09T00:54:50.861Z,81.00
2022-12-09T00:57:19.256Z,80.70
2022-12-09T00:59:49.391Z,80.70
2022-12-09T01:02:17.619Z,80.80
2022-12-09T01:04:46.092Z,80.90
2022-12-09T01:07:15.637Z,80.40
2022-12-09T01:09:48.755Z,80.50
2022-12-09T01:12:17.199Z,80.70
2022-12-09T01:14:45.539Z,80.70
2022-12-09T01:17:15.052Z,81.30
2022-12-09T01:19:43.332Z,81.20
2022-12-09T01:22:11.674Z,81.00
2022-12-09T01:24:39.979Z,81.00
2022-12-09T01:27:08.234Z,81.00
2022-12-09T01:29:36.704Z,81.30
2022-12-09T01:32:05.060Z,81.10
2022-12-09T01:34:34.995Z,80.90
2022-12-09T01:37:03.101Z,81.00
2022-12-09T01:39:31.951Z,80.40
2022-12-09T01:42:02.545Z,80.30
2022-12-09T01:44:33.406Z,80.10
2022-12-09T01:47:03.068Z,80.00
2022-12-09T01:49:36.266Z,80.10
2022-12-09T01:52:14.694Z,80.10
2022-12-09T01:54:47.958Z,80.10
2022-12-09T01:57:16.672Z,80.20
2022-12-09T01:59:45.970Z,80.20
2022-12-09T02:02:17.892Z,80.20
2022-12-09T02:04:50.035Z,80.30
2022-12-09T02:07:20.551Z,80.30
2022-12-09T02:09:53.205Z,80.10
2022-12-09T02:12:34.845Z,80.30
2022-12-09T02:15:06.148Z,80.50
2022-12-09T02:17:41.923Z,80.70
2022-12-09T02:20:18.600Z,80.80
2022-12-09T02:22:50.420Z,81.00
2022-12-09T02:25:34.518Z,81.30
2022-12-09T02:28:25.887Z,81.60
2022-12-09T02:31:03.035Z,82.00
2022-12-09T02:33:43.012Z,81.80
2022-12-09T02:36:19.349Z,81.70
2022-12-09T02:38:51.171Z,81.80
2022-12-09T02:41:24.894Z,81.90
2022-12-09T02:43:56.656Z,81.90
2022-12-09T02:46:30.863Z,82.00
2022-12-09T02:49:01.085Z,81.90
2022-12-09T02:51:34.703Z,82.00
2022-12-09T02:54:08.793Z,82.00
2022-12-09T02:56:40.055Z,82.00
2022-12-09T02:59:08.433Z,82.00
2022-12-09T03:01:42.872Z,82.10
2022-12-09T03:04:17.609Z,82.30
2022-12-09T03:06:51.699Z,82.40
2022-12-09T03:09:25.028Z,82.40
2022-12-09T03:11:55.043Z,82.40
2022-12-09T03:14:28.360Z,82.40
2022-12-09T03:17:06.206Z,82.40
2022-12-09T03:19:37.393Z,82.50
2022-12-09T03:22:12.993Z,82.60
2022-12-09T03:24:46.619Z,82.60
2022-12-09T03:27:19.429Z,82.50
2022-12-09T03:29:49.849Z,82.40
2022-12-09T03:32:21.706Z,82.40
2022-12-09T03:34:52.261Z,82.40
2022-12-09T03:37:23.205Z,82.30
2022-12-09T03:39:53.092Z,82.30
2022-12-09T03:42:25.096Z,82.10
2022-12-09T03:44:57.975Z,82.00
2022-12-09T03:47:26.083Z,82.10
2022-12-09T03:49:54.773Z,82.20
2022-12-09T03:52:28.810Z,82.30
2022-12-09T03:55:01.045Z,82.40
2022-12-09T03:57:30.346Z,82.30
2022-12-09T04:00:01.898Z,82.20
2022-12-09T04:02:30.538Z,82.30
2022-12-09T04:04:58.857Z,82.40
2022-12-09T04:07:28.515Z,82.50
2022-12-09T04:09:57.154Z,82.60
2022-12-09T04:12:25.340Z,82.60
2022-12-09T04:14:53.754Z,82.80
2022-12-09T04:17:22.096Z,82.60
2022-12-09T04:19:51.910Z,82.50
2022-12-09T04:22:22.513Z,82.50
2022-12-09T04:24:52.001Z,82.60
2022-12-09T04:27:20.245Z,82.70
2022-12-09T04:29:48.762Z,82.90
2022-12-09T04:32:17.137Z,83.00
2022-12-09T04:34:45.571Z,83.20
2022-12-09T04:37:16.071Z,83.30
2022-12-09T04:39:44.231Z,83.40
2022-12-09T04:42:13.688Z,83.40
2022-12-09T04:44:41.900Z,83.30
2022-12-09T04:47:10.023Z,83.50
2022-12-09T04:49:38.901Z,83.50
2022-12-09T04:52:07.152Z,83.50
2022-12-09T04:54:35.141Z,83.60
2022-12-09T04:57:03.173Z,83.60
2022-12-09T04:59:33.696Z,83.60
2022-12-09T05:02:01.847Z,83.80
2022-12-09T05:04:30.462Z,83.70
2022-12-09T05:06:58.868Z,83.90
2022-12-09T05:09:27.244Z,83.90
2022-12-09T05:11:57.529Z,84.00
2022-12-09T05:14:25.852Z,84.00
2022-12-09T05:16:55.426Z,84.10
2022-12-09T05:19:24.293Z,84.10
2022-12-09T05:21:52.979Z,84.20
2022-12-09T05:24:21.280Z,84.10
2022-12-09T05:26:49.579Z,84.10
2022-12-09T05:29:22.490Z,84.10
2022-12-09T05:31:51.728Z,84.10
2022-12-09T05:34:21.886Z,84.10
2022-12-09T05:36:50.253Z,84.10
2022-12-09T05:39:19.286Z,84.10
2022-12-09T05:41:48.004Z,84.20
2022-12-09T05:44:16.630Z,84.20
2022-12-09T05:46:45.427Z,84.30
2022-12-09T05:49:13.724Z,84.30
2022-12-09T05:51:43.231Z,84.50
2022-12-09T05:54:11.932Z,84.50
2022-12-09T05:56:46.107Z,84.60
2022-12-09T05:59:16.350Z,84.70
2022-12-09T06:01:44.613Z,84.70
2022-12-09T06:04:12.869Z,84.70
2022-12-09T06:06:41.573Z,84.80
2022-12-09T06:09:12.155Z,84.70
2022-12-09T06:11:41.332Z,84.80
2022-12-09T06:14:10.860Z,84.70
2022-12-09T06:16:39.885Z,84.80
2022-12-09T06:19:08.184Z,84.80
2022-12-09T06:21:36.452Z,84.90
2022-12-09T06:24:06.815Z,84.90
2022-12-09T06:26:36.380Z,85.00
2022-12-09T06:29:04.837Z,85.10
2022-12-09T06:31:33.415Z,85.20
2022-12-09T06:34:02.814Z,85.20
2022-12-09T06:36:32.701Z,85.30
2022-12-09T06:39:09.633Z,85.20
2022-12-09T06:41:41.573Z,85.20
2022-12-09T06:44:09.876Z,84.90
2022-12-09T06:46:38.338Z,84.80
2022-12-09T06:49:07.148Z,84.70
2022-12-09T06:51:35.294Z,84.60
2022-12-09T06:54:03.858Z,84.50
2022-12-09T06:56:33.367Z,84.50
2022-12-09T06:59:07.186Z,84.50
2022-12-09T07:01:35.864Z,84.60
2022-12-09T07:04:06.437Z,84.70
2022-12-09T07:06:36.595Z,84.70
2022-12-09T07:09:07.527Z,84.70
2022-12-09T07:11:36.811Z,84.70
2022-12-09T07:14:06.807Z,84.80
2022-12-09T07:16:35.845Z,84.70
2022-12-09T07:19:05.288Z,84.70
2022-12-09T07:21:34.514Z,84.90
2022-12-09T07:24:03.920Z,84.80
2022-12-09T07:26:32.903Z,84.80
2022-12-09T07:29:03.063Z,84.80
2022-12-09T07:31:33.671Z,84.80
2022-12-09T07:34:03.045Z,84.90
2022-12-09T07:36:33.042Z,84.80
2022-12-09T07:39:03.269Z,84.80
2022-12-09T07:41:31.687Z,84.80
2022-12-09T07:44:00.493Z,84.70
2022-12-09T07:46:29.065Z,84.80
2022-12-09T07:48:59.672Z,84.80
2022-12-09T07:51:29.569Z,84.80
2022-12-09T07:53:58.861Z,84.70
2022-12-09T07:56:29.392Z,84.70
2022-12-09T07:58:59.498Z,84.70
2022-12-09T08:01:30.234Z,84.70
2022-12-09T08:04:01.519Z,84.80
2022-12-09T08:06:32.216Z,84.90
2022-12-09T08:09:02.002Z,84.80
2022-12-09T08:11:33.016Z,84.90
2022-12-09T08:14:09.013Z,84.80
2022-12-09T08:16:40.310Z,84.80
2022-12-09T08:19:10.514Z,84.80
2022-12-09T08:21:39.823Z,84.80
2022-12-09T08:24:08.795Z,84.70
2022-12-09T08:26:39.285Z,84.70
2022-12-09T08:29:10.158Z,84.70
2022-12-09T08:31:41.756Z,84.60
2022-12-09T08:34:12.206Z,84.70
2022-12-09T08:36:44.345Z,84.60
2022-12-09T08:39:13.957Z,84.50
2022-12-09T08:41:43.948Z,84.70
2022-12-09T08:44:15.548Z,84.90
2022-12-09T08:46:46.434Z,84.50
2022-12-09T08:49:18.966Z,84.30
2022-12-09T08:51:49.417Z,84.20
2022-12-09T08:54:18.091Z,83.90
2022-12-09T08:56:47.790Z,83.20
2022-12-09T08:59:17.734Z,82.70
2022-12-09T09:01:46.622Z,82.20
2022-12-09T09:04:19.296Z,81.10
2022-12-09T09:06:50.580Z,80.60
2022-12-09T09:09:20.369Z,80.30
2022-12-09T09:11:49.556Z,80.40
2022-12-09T09:14:18.396Z,80.10
2022-12-09T09:16:47.305Z,81.00
2022-12-09T09:19:20.358Z,80.10
2022-12-09T09:21:49.074Z,80.30
2022-12-09T09:24:19.862Z,79.50
2022-12-09T09:26:52.495Z,79.30
2022-12-09T09:29:22.815Z,78.50
2022-12-09T09:31:54.509Z,77.90
2022-12-09T09:34:29.356Z,77.40
2022-12-09T09:36:58.582Z,76.10
2022-12-09T09:39:26.937Z,76.10
2022-12-09T09:42:03.225Z,76.80
2022-12-09T09:44:41.146Z,76.90
2022-12-09T09:47:19.869Z,77.00
2022-12-09T09:49:55.081Z,76.50
2022-12-09T09:52:26.817Z,76.00
2022-12-09T09:54:56.336Z,75.80
2022-12-09T09:57:30.727Z,75.30
2022-12-09T10:00:11.070Z,74.70
2022-12-09T10:03:00.093Z,74.00
2022-12-09T10:05:34.478Z,74.40
2022-12-09T10:08:22.826Z,73.70
2022-12-09T10:11:02.784Z,72.40
2022-12-09T10:13:48.313Z,70.70
2022-12-09T10:16:19.274Z,68.80
2022-12-09T10:19:06.032Z,66.80
2022-12-09T10:21:42.838Z,67.40
2022-12-09T10:24:25.019Z,66.40
2022-12-09T10:27:03.015Z,65.50
2022-12-09T10:29:49.936Z,64.30
2022-12-09T10:32:21.601Z,60.80
2022-12-09T10:34:50.609Z,60.00
2022-12-09T10:37:33.023Z,57.10
2022-12-09T10:40:13.915Z,58.80
2022-12-09T10:43:04.857Z,58.30
2022-12-09T10:46:07.993Z,56.20
2022-12-09T10:48:32.735Z,53.50
2022-12-09T10:51:05.028Z,54.80
2022-12-09T10:53:36.869Z,54.80
2022-12-09T10:56:06.515Z,57.30
2022-12-09T10:58:34.773Z,58.70
2022-12-09T11:01:10.248Z,60.60
2022-12-09T11:03:41.453Z,63.60
2022-12-09T11:06:21.807Z,65.20
2022-12-09T11:08:54.578Z,67.10
2022-12-09T11:11:40.552Z,67.60
2022-12-09T11:14:24.084Z,66.70
2022-12-09T11:16:54.840Z,66.60
2022-12-09T11:19:31.887Z,67.00
2022-12-09T11:22:31.785Z,66.00
2022-12-09T11:25:25.704Z,66.00
2022-12-09T11:27:57.080Z,67.70
2022-12-09T11:30:28.956Z,67.60
2022-12-09T11:33:01.428Z,67.40
2022-12-09T11:35:34.092Z,66.30
2022-12-09T11:38:15.999Z,65.10
2022-12-09T11:41:01.191Z,65.70
2022-12-09T11:43:39.597Z,65.00
2022-12-09T11:46:28.367Z,65.60
2022-12-09T11:49:00.888Z,66.60
2022-12-09T11:51:48.963Z,67.40
2022-12-09T11:54:23.279Z,67.40
2022-12-09T11:56:59.674Z,67.40
2022-12-09T11:59:37.815Z,69.10
2022-12-09T12:02:13.320Z,68.30
2022-12-09T12:04:45.450Z,68.40
2022-12-09T12:07:19.310Z,68.80
2022-12-09T12:09:54.610Z,69.20
2022-12-09T12:12:33.050Z,69.70
2022-12-09T12:15:21.474Z,69.70
2022-12-09T12:17:53.559Z,67.90
2022-12-09T12:20:26.793Z,67.40
2022-12-09T12:23:28.020Z,67.30
2022-12-09T12:26:05.772Z,68.80
2022-12-09T12:29:05.511Z,70.30
2022-12-09T12:31:55.645Z,71.00
2022-12-09T12:34:38.880Z,71.20
2022-12-09T12:37:25.881Z,70.40
2022-12-09T12:40:04.843Z,67.70
2022-12-09T12:43:06.516Z,64.80
2022-12-09T12:46:07.055Z,65.40
2022-12-09T12:48:47.380Z,63.20
2022-12-09T12:51:24.937Z,61.60
2022-12-09T12:54:02.482Z,61.00
2022-12-09T12:56:38.043Z,61.80
2022-12-09T12:59:16.046Z,62.80
2022-12-09T13:01:54.601Z,62.90
2022-12-09T13:04:28.578Z,64.60
2022-12-09T13:07:04.480Z,67.10
2022-12-09T13:09:40.365Z,69.50
2022-12-09T13:12:17.710Z,71.30
2022-12-09T13:14:54.022Z,72.60
2022-12-09T13:17:28.687Z,73.30
2022-12-09T13:20:01.360Z,73.70
2022-12-09T13:22:38.593Z,74.10
2022-12-09T13:25:20.205Z,74.40
2022-12-09T13:27:56.125Z,75.00
2022-12-09T13:30:32.324Z,75.30
2022-12-09T13:33:26.852Z,75.60
2022-12-09T13:36:06.459Z,75.80
2022-12-09T13:38:43.359Z,76.30
2022-12-09T13:41:59.418Z,76.20
2022-12-09T13:44:35.825Z,76.40
2022-12-09T13:47:25.909Z,76.10
2022-12-09T13:50:03.402Z,76.00
2022-12-09T13:52:50.669Z,76.00
2022-12-09T13:55:30.866Z,75.70
2022-12-09T13:58:11.522Z,75.90
2022-12-09T14:00:43.959Z,75.70
2022-12-09T14:03:49.727Z,75.70
2022-12-09T14:06:36.467Z,75.60
2022-12-09T14:09:18.129Z,75.70
2022-12-09T14:11:53.058Z,75.90
2022-12-09T14:14:49.048Z,75.80
2022-12-09T14:17:20.231Z,75.90
2022-12-09T14:19:56.591Z,75.70
2022-12-09T14:22:42.216Z,75.70
2022-12-09T14:25:51.360Z,75.70
2022-12-09T14:28:41.903Z,76.00
2022-12-09T14:31:12.330Z,76.10
2022-12-09T14:33:46.143Z,76.30
2022-12-09T14:36:26.136Z,76.00
2022-12-09T14:42:00.228Z,76.40
2022-12-09T14:44:34.133Z,76.30
2022-12-09T14:47:20.388Z,76.40
2022-12-09T14:49:51.591Z,76.40
2022-12-09T14:52:26.284Z,76.40
2022-12-09T14:54:59.615Z,76.70
2022-12-09T14:57:35.586Z,76.70
2022-12-09T15:00:26.477Z,76.80
2022-12-09T15:05:59.365Z,77.20
2022-12-09T15:08:30.628Z,77.30
2022-12-09T15:11:02.693Z,77.30
2022-12-09T15:13:40.159Z,77.10
2022-12-09T15:16:30.089Z,77.20
2022-12-09T15:19:16.656Z,77.30
2022-12-09T15:21:52.922Z,77.30
2022-12-09T15:24:48.943Z,77.50
2022-12-09T15:27:22.089Z,77.60
2022-12-09T15:29:51.193Z,77.70
2022-12-09T15:32:25.080Z,77.90
2022-12-09T15:34:55.356Z,77.70
2022-12-09T15:37:29.089Z,77.80
2022-12-09T15:40:04.319Z,78.00
2022-12-09T15:42:38.729Z,77.80
2022-12-09T15:48:17.415Z,78.40
2022-12-09T15:50:51.858Z,78.40
2022-12-09T15:53:37.759Z,78.30
2022-12-09T15:56:12.691Z,78.50
2022-12-09T16:02:03.631Z,78.60
2022-12-09T16:14:47.775Z,78.60
2022-12-09T16:20:35.618Z,78.90
2022-12-09T16:23:08.232Z,78.90
2022-12-09T16:25:40.479Z,78.80
2022-12-09T16:28:24.225Z,78.80
2022-12-09T16:31:01.118Z,78.80
2022-12-09T16:33:32.399Z,79.00
2022-12-09T16:36:06.051Z,78.80
2022-12-09T16:38:37.231Z,78.80
2022-12-09T16:41:15.510Z,78.80
2022-12-09T16:43:58.337Z,78.80
2022-12-09T16:46:44.938Z,78.90
2022-12-09T16:49:13.587Z,78.80
2022-12-09T16:51:42.189Z,78.90
2022-12-09T16:57:17.853Z,79.00
2022-12-09T16:59:47.723Z,79.00
2022-12-09T17:02:50.073Z,79.30
2022-12-09T17:05:19.260Z,79.20
2022-12-09T17:07:48.252Z,78.90
2022-12-09T17:10:17.936Z,78.90
2022-12-09T17:12:47.076Z,78.90
2022-12-09T17:15:17.123Z,79.20
2022-12-09T17:17:49.409Z,79.00
2022-12-09T17:20:19.304Z,79.20
2022-12-09T17:22:48.342Z,79.40
2022-12-09T17:25:17.155Z,79.40
2022-12-09T17:27:45.868Z,79.40
2022-12-09T17:30:16.173Z,79.50
2022-12-09T17:32:46.910Z,79.40
2022-12-09T17:35:16.605Z,79.40
2022-12-09T17:37:47.465Z,79.50
2022-12-09T17:40:16.746Z,79.50
2022-12-09T17:42:46.377Z,79.60
2022-12-09T17:45:22.983Z,79.70
2022-12-09T17:47:53.225Z,79.70
2022-12-09T17:50:22.824Z,79.60
2022-12-09T17:52:51.677Z,79.50
2022-12-09T17:55:21.538Z,79.80
2022-12-09T17:57:54.121Z,79.60
2022-12-09T18:00:23.658Z,79.60
2022-12-09T18:02:53.813Z,79.70
2022-12-09T18:05:23.677Z,79.80
2022-12-09T18:07:55.525Z,79.70
2022-12-09T18:10:25.901Z,79.70
2022-12-09T18:12:56.102Z,79.70
2022-12-09T18:15:27.566Z,79.70
2022-12-09T18:17:59.735Z,79.50
2022-12-09T18:20:28.353Z,79.60
2022-12-09T18:22:58.618Z,79.20
2022-12-09T18:25:27.150Z,79.10
2022-12-09T18:27:56.155Z,79.40
2022-12-09T18:30:26.835Z,79.40
2022-12-09T18:32:58.069Z,79.50
2022-12-09T18:35:28.292Z,79.60
2022-12-09T18:38:06.038Z,79.60
2022-12-09T18:41:00.863Z,79.40
2022-12-09T18:43:31.535Z,79.40
2022-12-09T18:46:03.920Z,79.40
2022-12-09T18:48:35.816Z,79.40
2022-12-09T18:51:05.182Z,79.30
2022-12-09T18:53:33.789Z,79.40
2022-12-09T18:56:05.745Z,79.10
2022-12-09T18:59:04.701Z,78.90
2022-12-09T19:01:29.972Z,79.10
2022-12-09T19:04:02.128Z,78.90
2022-12-09T19:06:32.608Z,78.80
2022-12-09T19:09:03.702Z,78.70
2022-12-09T19:11:35.012Z,79.00
2022-12-09T19:14:05.952Z,79.10
2022-12-09T19:16:36.162Z,79.10
2022-12-09T19:19:09.990Z,79.50
2022-12-09T19:21:48.994Z,79.50
2022-12-09T19:24:19.409Z,79.60
2022-12-09T19:26:48.512Z,79.70
2022-12-09T19:29:18.027Z,79.90
2022-12-09T19:31:48.702Z,79.90
2022-12-09T19:34:21.359Z,80.00
2022-12-09T19:36:51.373Z,79.80
2022-12-09T19:39:24.034Z,79.80
2022-12-09T19:41:53.208Z,79.90
2022-12-09T19:44:44.368Z,79.70
2022-12-09T19:47:11.297Z,79.80
2022-12-09T19:49:42.710Z,79.80
2022-12-09T19:52:14.068Z,79.70
2022-12-09T19:54:43.302Z,79.90
2022-12-09T19:57:11.662Z,79.80
2022-12-09T19:59:40.437Z,79.80
2022-12-09T20:02:12.099Z,79.90
2022-12-09T20:04:50.745Z,79.90
2022-12-09T20:07:20.388Z,79.90
2022-12-09T20:09:52.605Z,79.90
2022-12-09T20:12:21.239Z,80.10
2022-12-09T20:14:49.807Z,80.10
2022-12-09T20:17:18.629Z,80.00
2022-12-09T20:19:49.229Z,79.90
2022-12-09T20:22:18.950Z,80.00
2022-12-09T20:24:48.820Z,79.80
2022-12-09T20:27:21.544Z,79.60
2022-12-09T20:29:53.813Z,79.60
2022-12-09T20:32:23.796Z,80.10
2022-12-09T20:34:55.819Z,80.20
2022-12-09T20:37:24.525Z,80.30
2022-12-09T20:39:53.397Z,80.30
2022-12-09T20:42:23.830Z,80.20
2022-12-09T20:44:53.039Z,80.30
2022-12-09T20:47:21.750Z,80.30
2022-12-09T20:49:50.677Z,80.30
2022-12-09T20:52:20.617Z,80.40
2022-12-09T20:54:49.834Z,80.40
2022-12-09T20:57:18.767Z,80.40
2022-12-09T20:59:47.471Z,80.20
2022-12-09T21:02:17.423Z,80.40
2022-12-09T21:04:46.711Z,80.30
2022-12-09T21:07:15.463Z,80.40
2022-12-09T21:09:53.973Z,80.30
2022-12-09T21:12:23.040Z,80.60
2022-12-09T21:14:51.779Z,80.70
2022-12-09T21:17:20.690Z,80.60
2022-12-09T21:19:49.876Z,80.60
2022-12-09T21:22:18.543Z,80.60
2022-12-09T21:24:48.787Z,80.40
2022-12-09T21:27:17.273Z,80.30
2022-12-09T21:29:45.835Z,80.40
2022-12-09T21:32:14.595Z,80.40
2022-12-09T21:34:44.536Z,80.10
2022-12-09T21:37:13.200Z,80.10
2022-12-09T21:39:42.560Z,80.30
2022-12-09T21:42:12.532Z,80.40
2022-12-09T21:44:42.320Z,80.50
2022-12-09T21:47:11.304Z,80.60
2022-12-09T21:49:39.994Z,80.50
2022-12-09T21:52:09.905Z,80.50
2022-12-09T21:54:38.589Z,80.50
2022-12-09T21:57:07.460Z,80.30
2022-12-09T21:59:37.248Z,80.50
2022-12-09T22:02:06.788Z,80.50
2022-12-09T22:04:35.428Z,80.40
2022-12-09T22:07:04.328Z,80.50
2022-12-09T22:09:33.055Z,80.50
2022-12-09T22:12:01.875Z,80.60
2022-12-09T22:14:30.379Z,80.60
2022-12-09T22:17:00.569Z,80.70
2022-12-09T22:19:29.827Z,80.50
2022-12-09T22:22:08.850Z,80.50
2022-12-09T22:24:39.317Z,80.50
2022-12-09T22:27:07.872Z,80.30
2022-12-09T22:29:36.177Z,80.30
2022-12-09T22:32:07.131Z,80.40
2022-12-09T22:34:35.409Z,80.60
2022-12-09T22:37:21.274Z,80.50
2022-12-09T22:39:52.186Z,80.20
2022-12-09T22:42:20.433Z,80.50
2022-12-09T22:44:48.680Z,80.60
2022-12-09T22:47:18.735Z,80.60
2022-12-09T22:49:47.320Z,80.50
2022-12-09T22:52:18.508Z,80.40
2022-12-09T22:54:49.702Z,80.20
2022-12-09T22:57:19.054Z,80.10
2022-12-09T22:59:47.759Z,80.20
2022-12-09T23:02:19.044Z,80.20
2022-12-09T23:04:47.514Z,80.20
2022-12-09T23:07:15.780Z,80.40
2022-12-09T23:09:44.642Z,80.30
2022-12-09T23:12:12.867Z,80.50
2022-12-09T23:14:41.533Z,80.40
2022-12-09T23:17:09.825Z,80.50
2022-12-09T23:19:40.113Z,80.50
2022-12-09T23:22:08.727Z,80.50
2022-12-09T23:24:37.228Z,80.60
2022-12-09T23:27:06.181Z,80.50
2022-12-09T23:29:34.998Z,80.40
2022-12-09T23:32:04.115Z,80.40
2022-12-09T23:34:32.521Z,80.50
2022-12-09T23:37:04.262Z,80.60
2022-12-09T23:39:33.012Z,80.50
2022-12-09T23:42:01.437Z,80.60
2022-12-09T23:44:30.168Z,80.60
2022-12-09T23:46:58.747Z,80.60
2022-12-09T23:49:28.776Z,80.60
2022-12-09T23:51:57.076Z,80.60
2022-12-09T23:54:26.678Z,80.50
2022-12-09T23:56:54.856Z,80.30
2022-12-09T23:59:25.033Z,80.40
